createdAt,value
2018-06-19T00:00:40.122Z,20.48
2018-06-19T00:03:10.396Z,20.47
2018-06-19T00:05:41.397Z,20.40
2018-06-19T00:08:11.658Z,20.47
2018-06-19T00:10:42.474Z,20.48
2018-06-19T00:13:12.800Z,20.48
2018-06-19T00:15:43.595Z,20.42
2018-06-19T00:18:27.128Z,20.36
2018-06-19T00:21:00.860Z,20.37
2018-06-19T00:23:31.578Z,20.36
2018-06-19T00:26:02.731Z,20.36
2018-06-19T00:28:34.210Z,20.36
2018-06-19T00:31:11.731Z,20.35
2018-06-19T00:33:42.325Z,20.33
2018-06-19T00:36:13.512Z,20.30
2018-06-19T00:38:44.250Z,20.32
2018-06-19T00:41:15.068Z,20.36
2018-06-19T00:43:45.393Z,20.38
2018-06-19T00:46:17.438Z,20.42
2018-06-19T00:48:48.001Z,20.38
2018-06-19T00:51:18.466Z,20.43
2018-06-19T00:53:48.829Z,20.44
2018-06-19T00:56:29.941Z,20.42
2018-06-19T00:59:00.365Z,20.40
2018-06-19T01:01:31.429Z,20.34
2018-06-19T01:04:02.097Z,20.30
2018-06-19T01:06:32.679Z,20.33
2018-06-19T01:09:03.077Z,20.35
2018-06-19T01:11:34.562Z,20.36
2018-06-19T01:14:05.053Z,20.32
2018-06-19T01:16:35.579Z,20.28
2018-06-19T01:19:06.386Z,20.34
2018-06-19T01:21:37.070Z,20.31
2018-06-19T01:24:07.622Z,20.31
2018-06-19T01:26:38.733Z,20.35
2018-06-19T01:29:09.368Z,20.36
2018-06-19T01:31:40.795Z,20.31
2018-06-19T01:34:11.144Z,20.35
2018-06-19T01:36:42.035Z,20.32
2018-06-19T01:39:12.691Z,20.32
2018-06-19T01:41:43.101Z,20.29
2018-06-19T01:44:13.243Z,20.30
2018-06-19T01:46:44.469Z,20.33
2018-06-19T01:49:15.808Z,20.33
2018-06-19T01:51:46.788Z,20.33
2018-06-19T01:54:17.357Z,20.29
2018-06-19T01:56:47.812Z,20.31
2018-06-19T01:59:18.840Z,20.31
2018-06-19T02:01:49.449Z,20.28
2018-06-19T02:04:19.801Z,20.25
2018-06-19T02:06:49.876Z,20.23
2018-06-19T02:09:20.816Z,20.24
2018-06-19T02:11:51.375Z,20.28
2018-06-19T02:14:21.741Z,20.24
2018-06-19T02:16:52.609Z,20.31
2018-06-19T02:19:23.529Z,20.25
2018-06-19T02:21:54.138Z,20.28
2018-06-19T02:24:24.481Z,20.21
2018-06-19T02:26:54.876Z,20.15
2018-06-19T02:29:25.395Z,20.22
2018-06-19T02:31:56.498Z,20.23
2018-06-19T02:34:27.194Z,20.28
2018-06-19T02:36:58.426Z,20.25
2018-06-19T02:39:29.865Z,20.23
2018-06-19T02:42:00.851Z,20.22
2018-06-19T02:44:32.269Z,20.20
2018-06-19T02:47:02.876Z,20.19
2018-06-19T02:49:34.358Z,20.15
2018-06-19T02:52:05.220Z,20.16
2018-06-19T02:54:35.742Z,20.17
2018-06-19T02:57:06.425Z,20.13
2018-06-19T02:59:37.088Z,20.12
2018-06-19T03:02:07.490Z,20.14
2018-06-19T03:04:38.200Z,20.16
2018-06-19T03:07:08.743Z,20.11
2018-06-19T03:09:39.121Z,20.12
2018-06-19T03:12:09.722Z,20.14
2018-06-19T03:14:40.362Z,20.13
2018-06-19T03:17:11.253Z,20.16
2018-06-19T03:19:42.112Z,20.12
2018-06-19T03:22:12.947Z,20.14
2018-06-19T03:24:43.714Z,20.15
2018-06-19T03:27:15.091Z,20.19
2018-06-19T03:29:45.729Z,20.17
2018-06-19T03:32:16.140Z,20.25
2018-06-19T03:34:46.789Z,20.27
2018-06-19T03:37:17.381Z,20.32
2018-06-19T03:39:47.886Z,20.36
2018-06-19T03:42:18.686Z,20.38
2018-06-19T03:44:49.168Z,20.41
2018-06-19T03:47:20.149Z,20.43
2018-06-19T03:49:50.990Z,20.46
2018-06-19T03:52:21.594Z,20.51
2018-06-19T03:54:51.900Z,20.47
2018-06-19T03:57:22.173Z,20.47
2018-06-19T03:59:53.026Z,20.47
2018-06-19T04:02:23.291Z,20.44
2018-06-19T04:04:54.118Z,20.45
2018-06-19T04:07:24.690Z,20.49
2018-06-19T04:09:55.042Z,20.51
2018-06-19T04:12:25.432Z,20.53
2018-06-19T04:14:56.345Z,20.56
2018-06-19T04:17:28.787Z,20.63
2018-06-19T04:19:59.937Z,20.66
2018-06-19T04:22:30.635Z,20.70
2018-06-19T04:25:01.067Z,20.77
2018-06-19T04:27:31.997Z,20.83
2018-06-19T04:30:03.092Z,20.91
2018-06-19T04:32:33.482Z,20.85
2018-06-19T04:35:04.832Z,20.81
2018-06-19T04:37:35.380Z,20.88
2018-06-19T04:40:06.222Z,20.94
2018-06-19T04:42:36.734Z,20.86
2018-06-19T04:45:08.830Z,20.86
2018-06-19T04:47:38.984Z,20.89
2018-06-19T04:50:09.769Z,20.85
2018-06-19T04:52:40.829Z,20.86
2018-06-19T04:55:11.950Z,20.95
2018-06-19T04:57:42.313Z,21.09
2018-06-19T05:00:12.663Z,21.01
2018-06-19T05:02:43.052Z,21.00
2018-06-19T05:05:13.642Z,20.96
2018-06-19T05:07:44.215Z,21.33
2018-06-19T05:10:14.903Z,21.54
2018-06-19T05:12:45.609Z,21.82
2018-06-19T05:15:16.283Z,22.00
2018-06-19T05:17:47.426Z,22.22
2018-06-19T05:20:18.919Z,22.43
2018-06-19T05:22:49.681Z,22.61
2018-06-19T05:25:20.490Z,22.56
2018-06-19T05:27:51.685Z,22.53
2018-06-19T05:30:22.019Z,22.50
2018-06-19T05:32:52.611Z,22.53
2018-06-19T05:35:22.966Z,22.71
2018-06-19T05:37:53.513Z,22.89
2018-06-19T05:40:24.244Z,22.86
2018-06-19T05:42:54.480Z,22.69
2018-06-19T05:45:24.973Z,22.65
2018-06-19T05:47:55.285Z,22.70
2018-06-19T05:50:25.507Z,22.67
2018-06-19T05:52:55.981Z,22.76
2018-06-19T05:55:26.248Z,22.71
2018-06-19T05:57:56.565Z,22.88
2018-06-19T06:00:26.800Z,22.88
2018-06-19T06:02:57.531Z,22.85
2018-06-19T06:05:27.849Z,22.74
2018-06-19T06:07:58.428Z,22.81
2018-06-19T06:10:28.906Z,22.92
2018-06-19T06:12:59.605Z,23.16
2018-06-19T06:15:30.017Z,23.30
2018-06-19T06:18:00.516Z,23.38
2018-06-19T06:20:30.801Z,23.44
2018-06-19T06:23:01.412Z,23.51
2018-06-19T06:25:31.696Z,23.57
2018-06-19T06:28:02.288Z,23.78
2018-06-19T06:30:32.803Z,23.70
2018-06-19T06:33:03.195Z,23.76
2018-06-19T06:35:33.211Z,23.72
2018-06-19T06:38:03.804Z,23.78
2018-06-19T06:40:34.308Z,23.81
2018-06-19T06:43:04.977Z,23.86
2018-06-19T06:45:35.291Z,23.80
2018-06-19T06:48:05.670Z,23.72
2018-06-19T06:50:36.317Z,23.74
2018-06-19T06:53:06.636Z,23.66
2018-06-19T06:55:37.345Z,23.63
2018-06-19T06:58:07.801Z,23.57
2018-06-19T07:00:38.320Z,23.60
2018-06-19T07:03:08.608Z,23.28
2018-06-19T07:05:39.396Z,23.04
2018-06-19T07:08:09.624Z,23.19
2018-06-19T07:10:39.940Z,23.39
2018-06-19T07:13:11.192Z,23.38
2018-06-19T07:15:41.423Z,23.42
2018-06-19T07:18:11.881Z,23.56
2018-06-19T07:20:42.186Z,23.40
2018-06-19T07:23:12.613Z,23.38
2018-06-19T07:25:42.879Z,23.42
2018-06-19T07:28:13.257Z,23.72
2018-06-19T07:30:43.828Z,23.85
2018-06-19T07:33:14.687Z,23.88
2018-06-19T07:35:45.088Z,23.95
2018-06-19T07:38:15.520Z,24.08
2018-06-19T07:40:46.448Z,24.26
2018-06-19T07:43:16.888Z,24.36
2018-06-19T07:45:47.496Z,24.20
2018-06-19T07:48:17.617Z,24.10
2018-06-19T07:50:47.977Z,24.29
2018-06-19T07:53:18.352Z,24.28
2018-06-19T07:55:48.728Z,24.34
2018-06-19T07:58:19.409Z,24.37
2018-06-19T08:00:50.333Z,24.24
2018-06-19T08:03:20.596Z,24.14
2018-06-19T08:05:50.994Z,24.18
2018-06-19T08:08:21.307Z,24.25
2018-06-19T08:10:52.003Z,24.18
2018-06-19T08:13:22.474Z,24.19
2018-06-19T08:15:53.614Z,24.16
2018-06-19T08:18:24.153Z,24.26
2018-06-19T08:20:55.126Z,24.28
2018-06-19T08:23:25.685Z,24.28
2018-06-19T08:25:56.317Z,24.16
2018-06-19T08:28:26.721Z,24.26
2018-06-19T08:30:57.048Z,24.35
2018-06-19T08:33:27.311Z,24.46
2018-06-19T08:35:57.764Z,24.54
2018-06-19T08:38:28.624Z,24.62
2018-06-19T08:40:59.286Z,24.83
2018-06-19T08:43:29.880Z,25.08
2018-06-19T08:46:00.421Z,25.23
2018-06-19T08:48:30.953Z,25.26
2018-06-19T08:51:01.471Z,25.19
2018-06-19T08:53:32.119Z,25.09
2018-06-19T08:56:02.608Z,24.90
2018-06-19T08:58:33.375Z,24.87
2018-06-19T09:01:03.828Z,24.76
2018-06-19T09:03:34.043Z,24.54
2018-06-19T09:06:05.302Z,24.53
2018-06-19T09:08:36.110Z,24.58
2018-06-19T09:11:07.041Z,24.56
2018-06-19T09:13:37.950Z,24.67
2018-06-19T09:16:08.997Z,24.71
2018-06-19T09:18:39.918Z,24.55
2018-06-19T09:21:10.435Z,24.68
2018-06-19T09:23:41.516Z,24.53
2018-06-19T09:26:11.952Z,24.54
2018-06-19T09:28:42.628Z,24.67
2018-06-19T09:31:13.539Z,24.81
2018-06-19T09:33:44.105Z,24.99
2018-06-19T09:36:14.607Z,25.03
2018-06-19T09:38:44.950Z,24.96
2018-06-19T09:41:15.952Z,25.07
2018-06-19T09:43:46.612Z,25.05
2018-06-19T09:46:17.000Z,25.16
2018-06-19T09:48:47.536Z,25.22
2018-06-19T09:51:18.171Z,25.31
2018-06-19T09:53:48.790Z,25.34
2018-06-19T09:56:19.395Z,25.06
2018-06-19T09:58:49.893Z,25.06
2018-06-19T10:01:20.254Z,24.98
2018-06-19T10:03:50.635Z,25.05
2018-06-19T10:06:21.060Z,25.11
2018-06-19T10:08:51.585Z,25.08
2018-06-19T10:11:22.432Z,25.00
2018-06-19T10:13:52.745Z,25.11
2018-06-19T10:16:23.300Z,25.30
2018-06-19T10:18:53.704Z,25.33
2018-06-19T10:21:24.142Z,25.32
2018-06-19T10:23:54.393Z,25.25
2018-06-19T10:26:24.392Z,25.12
2018-06-19T10:28:55.168Z,25.08
2018-06-19T10:31:25.718Z,25.27
2018-06-19T10:33:56.327Z,25.23
2018-06-19T10:36:26.788Z,25.13
2018-06-19T10:38:57.307Z,25.10
2018-06-19T10:41:27.755Z,25.23
2018-06-19T10:43:57.862Z,25.20
2018-06-19T10:46:28.379Z,25.28
2018-06-19T10:48:58.736Z,25.33
2018-06-19T10:51:28.814Z,25.33
2018-06-19T10:53:58.981Z,25.46
2018-06-19T10:56:29.213Z,25.55
2018-06-19T10:58:59.461Z,25.41
2018-06-19T11:01:30.400Z,25.12
2018-06-19T11:04:00.401Z,25.16
2018-06-19T11:06:30.521Z,25.29
2018-06-19T11:09:00.743Z,25.48
2018-06-19T11:11:31.418Z,25.54
2018-06-19T11:14:01.870Z,25.54
2018-06-19T11:16:32.199Z,25.57
2018-06-19T11:19:02.176Z,25.71
2018-06-19T11:21:33.085Z,25.77
2018-06-19T11:24:03.199Z,25.75
2018-06-19T11:26:33.595Z,25.80
2018-06-19T11:29:03.877Z,25.73
2018-06-19T11:31:34.300Z,25.65
2018-06-19T11:34:04.648Z,25.64
2018-06-19T11:36:35.063Z,25.60
2018-06-19T11:39:08.093Z,25.63
2018-06-19T11:41:38.183Z,25.65
2018-06-19T11:44:08.776Z,25.29
2018-06-19T11:46:38.946Z,25.42
2018-06-19T11:49:09.959Z,25.55
2018-06-19T11:51:40.133Z,25.62
2018-06-19T11:54:10.230Z,25.01
2018-06-19T11:56:40.321Z,25.00
2018-06-19T11:59:11.228Z,24.79
2018-06-19T12:01:41.199Z,24.53
2018-06-19T12:04:11.316Z,24.80
2018-06-19T12:06:41.413Z,24.89
2018-06-19T12:09:12.186Z,25.07
2018-06-19T12:11:42.352Z,25.21
2018-06-19T12:14:12.666Z,25.26
2018-06-19T12:16:42.931Z,25.43
2018-06-19T12:19:12.879Z,25.44
2018-06-19T12:21:42.908Z,25.38
2018-06-19T12:24:13.224Z,25.47
2018-06-19T12:26:43.665Z,25.46
2018-06-19T12:29:13.680Z,25.47
2018-06-19T12:31:43.927Z,25.48
2018-06-19T12:34:14.420Z,25.43
2018-06-19T12:36:44.729Z,25.51
2018-06-19T12:39:14.800Z,25.49
2018-06-19T12:41:46.471Z,25.43
2018-06-19T12:44:16.506Z,25.60
2018-06-19T12:46:46.575Z,25.58
2018-06-19T12:49:25.295Z,25.54
2018-06-19T12:52:06.025Z,25.66
2018-06-19T12:55:44.934Z,25.69
2018-06-19T12:58:15.085Z,25.62
2018-06-19T13:00:45.338Z,25.66
2018-06-19T13:03:26.312Z,25.68
2018-06-19T13:06:08.027Z,25.55
2018-06-19T13:08:38.084Z,25.57
2018-06-19T13:11:08.927Z,25.64
2018-06-19T13:13:49.847Z,25.67
2018-06-19T13:16:30.518Z,25.77
2018-06-19T13:19:11.239Z,25.53
2018-06-19T13:21:41.565Z,25.62
2018-06-19T13:24:12.297Z,25.29
2018-06-19T13:26:42.440Z,25.44
2018-06-19T13:29:50.856Z,25.63
2018-06-19T13:32:21.014Z,25.43
2018-06-19T13:34:51.324Z,25.48
2018-06-19T13:37:21.786Z,25.51
2018-06-19T13:41:02.992Z,25.69
2018-06-19T13:43:44.217Z,25.83
2018-06-19T13:46:14.381Z,25.96
2018-06-19T13:48:44.524Z,25.84
2018-06-19T13:51:14.758Z,25.82
2018-06-19T13:53:45.505Z,25.74
2018-06-19T13:57:35.206Z,25.80
2018-06-19T14:00:07.406Z,25.99
2018-06-19T14:02:37.615Z,26.00
2018-06-19T14:05:08.796Z,26.03
2018-06-19T14:07:49.922Z,26.05
2018-06-19T14:10:30.972Z,25.89
2018-06-19T14:13:02.743Z,26.03
2018-06-19T14:15:37.422Z,26.11
2018-06-19T14:18:08.099Z,26.32
2018-06-19T14:20:38.665Z,26.40
2018-06-19T14:23:08.919Z,26.35
2018-06-19T14:25:39.312Z,26.49
2018-06-19T14:28:09.428Z,26.53
2018-06-19T14:30:40.069Z,26.57
2018-06-19T14:33:10.223Z,26.47
2018-06-19T14:35:40.420Z,26.34
2018-06-19T14:38:10.547Z,26.22
2018-06-19T14:40:40.812Z,26.23
2018-06-19T14:43:10.766Z,26.20
2018-06-19T14:45:40.841Z,26.15
2018-06-19T14:48:10.797Z,26.19
2018-06-19T14:50:40.953Z,26.18
2018-06-19T14:53:10.997Z,26.28
2018-06-19T14:55:41.289Z,26.39
2018-06-19T14:58:11.288Z,26.44
2018-06-19T15:00:41.453Z,26.41
2018-06-19T15:03:11.676Z,26.26
2018-06-19T15:05:41.805Z,26.29
2018-06-19T15:08:11.778Z,26.31
2018-06-19T15:10:42.408Z,26.26
2018-06-19T15:13:12.538Z,26.36
2018-06-19T15:15:42.608Z,26.32
2018-06-19T15:18:12.738Z,26.25
2018-06-19T15:20:43.151Z,26.29
2018-06-19T15:23:13.488Z,26.32
2018-06-19T15:25:44.198Z,26.42
2018-06-19T15:28:14.212Z,26.48
2018-06-19T15:30:44.468Z,26.50
2018-06-19T15:33:14.855Z,26.32
2018-06-19T15:35:44.995Z,26.28
2018-06-19T15:38:15.079Z,26.18
2018-06-19T15:40:46.124Z,26.14
2018-06-19T15:43:16.289Z,26.08
2018-06-19T15:45:46.364Z,26.19
2018-06-19T15:48:16.805Z,26.06
2018-06-19T15:50:46.961Z,26.01
2018-06-19T15:53:17.118Z,26.07
2018-06-19T15:55:47.343Z,25.75
2018-06-19T15:58:17.740Z,25.83
2018-06-19T16:00:47.789Z,25.90
2018-06-19T16:03:17.824Z,25.97
2018-06-19T16:05:47.773Z,26.07
2018-06-19T16:08:18.678Z,25.93
2018-06-19T16:10:49.710Z,25.90
2018-06-19T16:13:19.962Z,25.95
2018-06-19T16:15:51.459Z,26.00
2018-06-19T16:18:23.106Z,26.11
2018-06-19T16:20:54.544Z,26.13
2018-06-19T16:23:25.111Z,26.10
2018-06-19T16:25:55.751Z,26.22
2018-06-19T16:28:26.512Z,26.21
2018-06-19T16:31:18.557Z,26.19
2018-06-19T16:34:00.249Z,25.91
2018-06-19T16:36:37.228Z,25.71
2018-06-19T16:39:18.001Z,25.79
2018-06-19T16:42:01.567Z,25.82
2018-06-19T16:44:39.345Z,25.98
2018-06-19T16:47:33.293Z,25.86
2018-06-19T16:50:13.404Z,25.85
2018-06-19T16:52:53.831Z,25.86
2018-06-19T16:55:31.961Z,25.86
2018-06-19T16:58:08.250Z,25.83
2018-06-19T17:03:31.709Z,25.89
2018-06-19T17:06:10.785Z,25.90
2018-06-19T17:08:45.391Z,25.86
2018-06-19T17:11:18.464Z,25.96
2018-06-19T17:14:07.625Z,25.91
2018-06-19T17:16:44.883Z,25.92
2018-06-19T17:19:19.970Z,25.96
2018-06-19T17:21:53.639Z,25.93
2018-06-19T17:24:26.792Z,25.78
2018-06-19T17:26:58.779Z,25.64
2018-06-19T17:29:29.659Z,25.56
2018-06-19T17:32:03.037Z,25.58
2018-06-19T17:34:33.427Z,25.58
2018-06-19T17:37:04.288Z,25.48
2018-06-19T17:39:37.058Z,25.46
2018-06-19T17:42:10.307Z,25.42
2018-06-19T17:44:42.235Z,25.40
2018-06-19T17:47:15.059Z,25.36
2018-06-19T17:49:46.717Z,25.31
2018-06-19T17:52:18.314Z,25.32
2018-06-19T17:54:50.803Z,25.28
2018-06-19T17:57:25.059Z,25.22
2018-06-19T17:59:57.435Z,25.18
2018-06-19T18:02:30.449Z,25.20
2018-06-19T18:05:00.912Z,25.15
2018-06-19T18:07:31.760Z,25.21
2018-06-19T18:10:03.762Z,25.12
2018-06-19T18:12:36.352Z,25.25
2018-06-19T18:15:07.285Z,25.27
2018-06-19T18:17:39.118Z,25.21
2018-06-19T18:20:09.621Z,25.11
2018-06-19T18:22:43.789Z,25.08
2018-06-19T18:25:15.460Z,24.97
2018-06-19T18:27:46.584Z,24.90
2018-06-19T18:30:18.397Z,24.84
2018-06-19T18:32:51.457Z,24.75
2018-06-19T18:35:22.754Z,24.71
2018-06-19T18:37:58.545Z,24.72
2018-06-19T18:40:29.226Z,24.70
2018-06-19T18:43:02.666Z,24.60
2018-06-19T18:45:34.748Z,24.55
2018-06-19T18:48:05.737Z,24.40
2018-06-19T18:50:38.324Z,24.44
2018-06-19T18:53:08.884Z,24.41
2018-06-19T18:55:40.282Z,24.44
2018-06-19T18:58:15.781Z,24.38
2018-06-19T19:00:47.401Z,24.47
2018-06-19T19:03:18.241Z,24.53
2018-06-19T19:05:50.810Z,24.50
2018-06-19T19:08:25.408Z,24.51
2018-06-19T19:10:59.240Z,24.52
2018-06-19T19:13:37.924Z,24.47
2018-06-19T19:16:15.047Z,24.47
2018-06-19T19:18:52.651Z,24.51
2018-06-19T19:21:25.747Z,24.47
2018-06-19T19:23:56.779Z,24.57
2018-06-19T19:26:33.575Z,24.39
2018-06-19T19:29:09.569Z,24.33
2018-06-19T19:31:41.091Z,24.22
2018-06-19T19:34:11.689Z,24.16
2018-06-19T19:36:49.072Z,24.18
2018-06-19T19:39:24.927Z,24.08
2018-06-19T19:41:58.362Z,23.96
2018-06-19T19:44:30.996Z,23.89
2018-06-19T19:47:07.753Z,23.91
2018-06-19T19:49:40.187Z,23.92
2018-06-19T19:52:11.815Z,23.83
2018-06-19T19:54:46.050Z,23.83
2018-06-19T19:57:22.768Z,23.76
2018-06-19T19:59:58.252Z,23.62
2018-06-19T20:02:31.445Z,23.62
2018-06-19T20:05:06.143Z,23.61
2018-06-19T20:07:40.917Z,23.54
2018-06-19T20:10:14.227Z,23.50
2018-06-19T20:12:47.817Z,23.45
2018-06-19T20:15:21.626Z,23.46
2018-06-19T20:17:55.565Z,23.41
2018-06-19T20:20:35.314Z,23.37
2018-06-19T20:23:10.172Z,23.37
2018-06-19T20:25:44.065Z,23.32
2018-06-19T20:28:20.017Z,23.33
2018-06-19T20:30:55.984Z,23.24
2018-06-19T20:33:29.898Z,23.22
2018-06-19T20:36:07.866Z,23.21
2018-06-19T20:38:40.006Z,23.17
2018-06-19T20:41:12.988Z,23.11
2018-06-19T20:43:46.033Z,23.13
2018-06-19T20:46:20.117Z,23.12
2018-06-19T20:48:50.614Z,23.10
2018-06-19T20:51:22.610Z,23.07
2018-06-19T20:53:54.313Z,23.03
2018-06-19T20:56:25.023Z,23.03
2018-06-19T20:58:57.909Z,22.94
2018-06-19T21:01:30.769Z,22.94
2018-06-19T21:04:01.538Z,22.88
2018-06-19T21:06:32.785Z,22.89
2018-06-19T21:09:04.685Z,22.85
2018-06-19T21:11:36.226Z,22.82
2018-06-19T21:14:11.751Z,22.83
2018-06-19T21:16:44.355Z,22.82
2018-06-19T21:19:17.445Z,22.78
2018-06-19T21:21:48.374Z,22.72
2018-06-19T21:24:21.787Z,22.67
2018-06-19T21:26:53.105Z,22.69
2018-06-19T21:29:25.301Z,22.70
2018-06-19T21:32:00.144Z,22.71
2018-06-19T21:34:33.317Z,22.71
2018-06-19T21:37:04.739Z,22.65
2018-06-19T21:39:38.442Z,22.62
2018-06-19T21:42:09.612Z,22.56
2018-06-19T21:44:40.553Z,22.53
2018-06-19T21:47:14.930Z,22.56
2018-06-19T21:49:47.177Z,22.52
2018-06-19T21:52:21.785Z,22.46
2018-06-19T21:54:54.266Z,22.43
2018-06-19T21:57:25.645Z,22.37
2018-06-19T21:59:58.529Z,22.34
2018-06-19T22:02:35.180Z,22.37
2018-06-19T22:05:07.207Z,22.28
2018-06-19T22:07:38.164Z,22.24
2018-06-19T22:10:08.633Z,22.23
2018-06-19T22:12:42.281Z,22.25
2018-06-19T22:15:14.138Z,22.24
2018-06-19T22:17:52.648Z,22.25
2018-06-19T22:20:25.645Z,22.16
2018-06-19T22:23:08.793Z,22.14
2018-06-19T22:25:40.889Z,21.93
2018-06-19T22:28:13.615Z,22.13
2018-06-19T22:30:47.917Z,22.05
2018-06-19T22:33:28.568Z,22.00
2018-06-19T22:36:00.560Z,21.97
2018-06-19T22:38:31.724Z,21.99
2018-06-19T22:41:04.035Z,21.98
2018-06-19T22:43:37.314Z,21.98
2018-06-19T22:46:09.394Z,21.96
2018-06-19T22:48:41.918Z,21.86
2018-06-19T22:51:12.679Z,21.81
2018-06-19T22:53:45.128Z,21.77
2018-06-19T22:56:17.004Z,21.70
2018-06-19T22:58:48.967Z,21.77
2018-06-19T23:01:25.560Z,21.69
2018-06-19T23:03:58.994Z,21.71
2018-06-19T23:06:31.367Z,21.71
2018-06-19T23:09:02.736Z,21.65
2018-06-19T23:11:35.358Z,21.63
2018-06-19T23:14:09.321Z,21.62
2018-06-19T23:16:45.400Z,21.62
2018-06-19T23:19:20.236Z,21.61
2018-06-19T23:21:59.971Z,21.55
2018-06-19T23:24:32.909Z,21.54
2018-06-19T23:27:06.346Z,21.58
2018-06-19T23:29:37.681Z,21.53
2018-06-19T23:32:09.015Z,21.59
2018-06-19T23:34:42.324Z,21.56
2018-06-19T23:37:14.182Z,21.60
2018-06-19T23:39:45.604Z,21.51
2018-06-19T23:42:19.053Z,21.47
2018-06-19T23:44:50.846Z,21.50
2018-06-19T23:47:23.093Z,21.46
2018-06-19T23:49:54.433Z,21.43
2018-06-19T23:52:27.454Z,21.51
2018-06-19T23:55:00.718Z,21.46
2018-06-19T23:57:33.611Z,21.47
